Time;durP1;ratioP1;P1;durP2;ratioP2;P2;SDS_P1;SDS_P2;PMS_P1;PMS_P2;Temp;Humidity;BMP_temperature;BMP_pressure;BME280_temperature;BME280_humidity;BME280_pressure;Samples;Min_cycle;Max_cycle;Signal;HPM_P1;HPM_P2
2022/12/05 00:02:17;;;;;;;;;;;;;;;;;;4435724;32;20034;-70
2022/12/05 00:04:43;;;;;;;72.78;38.58;;;;;;;;;;4433320;32;19945;-71
2022/12/05 00:07:08;;;;;;;;;;;;;;;;;;4434506;32;20133;-70
2022/12/05 00:09:33;;;;;;;71.65;38.20;;;;;;;;;;4433507;32;19941;-72
2022/12/05 00:11:58;;;;;;;;;;;;;;;;;;4433398;32;20191;-70
2022/12/05 00:14:23;;;;;;;69.32;37.53;;;;;;;;;;4434418;32;19945;-70
2022/12/05 00:16:48;;;;;;;;;;;;;;;;;;4434823;32;20129;-70
2022/12/05 00:19:14;;;;;;;70.15;37.65;;;;;;;;;;4432729;32;19960;-70
2022/12/05 00:21:39;;;;;;;;;;;;;;;;;;4420728;32;20133;-70
2022/12/05 00:24:06;;;;;;;70.36;37.64;;;;;;;;;;4432867;32;19943;-70
2022/12/05 00:26:31;;;;;;;66.53;36.53;;;;;;;;;;4419627;32;20057;-70
2022/12/05 00:28:56;;;;;;;;;;;;;;;;;;4435595;32;20444;-70
2022/12/05 00:31:22;;;;;;;67.80;36.38;;;;;;;;;;4436838;32;19955;-70
2022/12/05 00:33:47;;;;;;;;;;;;;;;;;;4436683;32;20408;-70
2022/12/05 00:36:14;;;;;;;60.95;33.80;;;;;;;;;;4419530;32;20310;-70
2022/12/05 00:38:39;;;;;;;70.55;38.45;;;;;;;;;;4419767;32;20083;-72
2022/12/05 00:41:04;;;;;;;;;;;;;;;;;;4432101;32;20145;-70
2022/12/05 00:43:29;;;;;;;64.57;34.05;;;;;;;;;;4435502;32;19962;-70
2022/12/05 00:45:54;;;;;;;;;;;;;;;;;;4437361;32;20108;-70
2022/12/05 00:48:19;;;;;;;56.53;30.77;;;;;;;;;;4435622;32;19982;-70
2022/12/05 00:50:44;;;;;;;;;;;;;;;;;;4437034;32;20059;-69
2022/12/05 00:53:10;;;;;;;57.28;31.65;;;;;;;;;;4435419;32;19932;-69
2022/12/05 00:55:35;;;;;;;;;;;;;;;;;;4421547;32;20514;-69
2022/12/05 00:58:00;;;;;;;63.67;33.92;;;;;;;;;;4435863;32;19948;-69
2022/12/05 01:00:25;;;;;;;;;;;;;;;;;;4435236;32;20038;-70
2022/12/05 01:02:50;;;;;;;65.72;34.15;;;;;;;;;;4422468;32;19971;-69
2022/12/05 01:05:15;;;;;;;;;;;;;;;;;;4435651;32;20081;-70
2022/12/05 01:07:40;;;;;;;61.63;33.70;;;;;;;;;;4433934;32;20384;-70
2022/12/05 01:10:06;;;;;;;;;;;;;;;;;;4421620;32;20144;-70
2022/12/05 01:12:31;;;;;;;58.33;33.25;;;;;;;;;;4434423;32;19972;-69
2022/12/05 01:14:56;;;;;;;;;;;;;;;;;;4436008;32;20051;-69
2022/12/05 01:17:21;;;;;;;65.53;36.30;;;;;;;;;;4436434;32;20121;-69
2022/12/05 01:19:46;;;;;;;;;;;;;;;;;;4435182;32;20128;-69
2022/12/05 01:22:11;;;;;;;65.28;34.72;;;;;;;;;;4436992;32;20062;-69
2022/12/05 01:24:36;;;;;;;;;;;;;;;;;;4437758;32;20102;-69
2022/12/05 01:27:02;;;;;;;64.62;34.88;;;;;;;;;;4422958;32;19955;-70
2022/12/05 01:29:27;;;;;;;60.95;33.92;;;;;;;;;;4423086;32;20022;-70
2022/12/05 01:31:52;;;;;;;;;;;;;;;;;;4438369;32;20034;-69
2022/12/05 01:34:17;;;;;;;69.52;36.04;;;;;;;;;;4424301;32;19936;-69
2022/12/05 01:36:42;;;;;;;;;;;;;;;;;;4437927;32;20025;-69
2022/12/05 01:39:08;;;;;;;66.87;37.10;;;;;;;;;;4436938;32;19936;-69
2022/12/05 01:41:33;;;;;;;;;;;;;;;;;;4436674;32;20125;-69
2022/12/05 01:44:04;;;;;;;63.75;35.15;;;;;;;;;;4420959;32;19952;-70
2022/12/05 01:46:31;;;;;;;65.03;35.13;;;;;;;;;;4422322;32;20098;-69
2022/12/05 01:49:10;;;;;;;65.35;33.88;;;;;;;;;;4420644;32;20071;-69
2022/12/05 01:51:37;;;;;;;66.78;35.55;;;;;;;;;;4435316;32;20026;-70
2022/12/05 01:54:03;;;;;;;63.08;34.60;;;;;;;;;;4435421;32;20030;-69
2022/12/05 01:56:31;;;;;;;60.92;33.75;;;;;;;;;;4435641;32;20033;-69
2022/12/05 01:58:57;;;;;;;68.53;36.53;;;;;;;;;;4435118;32;20055;-70
2022/12/05 02:01:22;;;;;;;;;;;;;;;;;;4434925;32;20349;-70
2022/12/05 02:03:49;;;;;;;64.60;35.70;;;;;;;;;;4435588;32;19937;-70
2022/12/05 02:06:14;;;;;;;66.97;34.58;;;;;;;;;;4420905;32;20495;-70
2022/12/05 02:08:39;;;;;;;;;;;;;;;;;;4436163;32;20086;-70
2022/12/05 02:11:05;;;;;;;68.78;36.67;;;;;;;;;;4435051;32;19932;-70
2022/12/05 02:13:37;;;;;;;73.18;37.15;;;;;;;;;;4434926;32;20061;-70
2022/12/05 02:16:14;;;;;;;68.05;36.33;;;;;;;;;;4436277;32;20052;-70
2022/12/05 02:18:58;;;;;;;70.00;36.47;;;;;;;;;;4435046;32;20041;-70
2022/12/05 02:21:24;;;;;;;73.03;37.00;;;;;;;;;;4434153;32;20025;-69
2022/12/05 02:23:49;;;;;;;;;;;;;;;;;;4436211;32;20025;-69
2022/12/05 02:26:32;;;;;;;74.95;38.42;;;;;;;;;;4434169;32;19967;-70
2022/12/05 02:29:09;;;;;;;72.12;36.55;;;;;;;;;;4419625;32;20121;-70
2022/12/05 02:31:43;;;;;;;70.32;37.72;;;;;;;;;;4434111;32;20025;-70
2022/12/05 02:34:15;;;;;;;76.43;38.92;;;;;;;;;;4420452;32;20221;-70
2022/12/05 02:36:44;;;;;;;75.85;38.30;;;;;;;;;;4420516;32;20034;-70
2022/12/05 02:39:09;;;;;;;72.37;38.22;;;;;;;;;;4434169;32;20029;-69
2022/12/05 02:41:47;;;;;;;79.10;37.78;;;;;;;;;;4433047;32;20105;-70
2022/12/05 02:44:34;;;;;;;80.93;39.60;;;;;;;;;;4434463;32;20033;-70
2022/12/05 02:47:00;;;;;;;75.32;35.60;;;;;;;;;;4434002;32;20045;-71
2022/12/05 02:49:25;;;;;;;;;;;;;;;;;;4436680;32;20168;-70
2022/12/05 02:51:55;;;;;;;82.35;39.90;;;;;;;;;;4434924;32;20000;-69
2022/12/05 02:54:23;;;;;;;79.97;39.67;;;;;;;;;;4434239;32;20157;-70
2022/12/05 02:56:49;;;;;;;80.87;40.40;;;;;;;;;;4421459;32;20037;-69
2022/12/05 02:59:15;;;;;;;75.93;37.35;;;;;;;;;;4434692;32;20092;-69
2022/12/05 03:01:40;;;;;;;;;;;;;;;;;;4434800;32;20148;-71
2022/12/05 03:04:06;;;;;;;82.07;40.05;;;;;;;;;;4436773;32;19947;-70
2022/12/05 03:06:45;;;;;;;77.82;39.72;;;;;;;;;;4434396;32;20386;-69
2022/12/05 03:09:17;;;;;;;73.18;36.50;;;;;;;;;;4434140;32;20057;-71
2022/12/05 03:11:45;;;;;;;73.50;37.45;;;;;;;;;;4434805;32;20029;-70
2022/12/05 03:14:14;;;;;;;73.68;39.95;;;;;;;;;;4433599;32;20426;-71
2022/12/05 03:16:46;;;;;;;80.35;40.47;;;;;;;;;;4419324;32;20077;-69
2022/12/05 03:19:14;;;;;;;71.47;38.47;;;;;;;;;;4420435;32;20077;-69
2022/12/05 03:21:42;;;;;;;80.90;38.90;;;;;;;;;;4420609;32;20163;-69
2022/12/05 03:24:10;;;;;;;78.18;38.00;;;;;;;;;;4433737;32;20098;-70
2022/12/05 03:26:41;;;;;;;81.22;37.92;;;;;;;;;;4432482;32;20390;-70
2022/12/05 03:29:09;;;;;;;79.95;41.58;;;;;;;;;;4432912;32;20430;-70
2022/12/05 03:31:57;;;;;;;69.28;37.45;;;;;;;;;;4434540;32;20021;-70
2022/12/05 03:34:35;;;;;;;75.43;39.00;;;;;;;;;;4427284;32;20097;-69
2022/12/05 03:37:03;;;;;;;81.07;38.42;;;;;;;;;;4420383;32;20064;-71
2022/12/05 03:39:31;;;;;;;74.80;38.33;;;;;;;;;;4434956;32;20049;-70
2022/12/05 03:41:56;;;;;;;72.32;38.05;;;;;;;;;;4435660;32;20072;-70
2022/12/05 03:44:21;;;;;;;;;;;;;;;;;;4434170;32;20021;-70
2022/12/05 03:46:51;;;;;;;73.22;37.96;;;;;;;;;;4433843;32;19966;-70
2022/12/05 03:49:28;;;;;;;77.22;37.80;;;;;;;;;;4433895;32;20056;-71
2022/12/05 03:51:58;;;;;;;69.32;36.40;;;;;;;;;;4433468;32;20078;-69
2022/12/05 03:54:26;;;;;;;81.30;37.08;;;;;;;;;;4434804;32;20026;-70
2022/12/05 03:57:00;;;;;;;77.97;37.90;;;;;;;;;;4419252;32;20084;-70
2022/12/05 03:59:31;;;;;;;71.37;37.20;;;;;;;;;;4434154;32;20067;-70
2022/12/05 04:01:59;;;;;;;65.80;36.28;;;;;;;;;;4435072;32;20074;-70
2022/12/05 04:04:27;;;;;;;75.45;38.10;;;;;;;;;;4437371;32;20029;-70
2022/12/05 04:06:54;;;;;;;66.10;35.10;;;;;;;;;;4436715;32;20026;-70
2022/12/05 04:09:22;;;;;;;63.20;34.20;;;;;;;;;;4438148;32;20037;-70
2022/12/05 04:11:50;;;;;;;69.82;34.80;;;;;;;;;;4437120;32;20030;-70
2022/12/05 04:14:21;;;;;;;68.25;37.10;;;;;;;;;;4437028;32;20026;-71
2022/12/05 04:17:02;;;;;;;73.87;37.08;;;;;;;;;;4421978;32;20407;-70
2022/12/05 04:21:36;;;;;;;71.32;36.30;;;;;;;;;;4436188;32;20426;-71
2022/12/05 04:22:16;;;;;;;69.40;35.65;;;;;;;;;;4436205;32;20331;-70
2022/12/05 04:27:33;;;;;;;74.87;34.30;;;;;;;;;;4436887;32;19993;-71
2022/12/05 04:30:07;;;;;;;76.57;37.50;;;;;;;;;;4422669;32;20045;-71
2022/12/05 04:32:42;;;;;;;68.12;33.67;;;;;;;;;;4436879;32;20033;-71
2022/12/05 04:35:13;;;;;;;71.32;35.80;;;;;;;;;;4423066;32;20029;-70
2022/12/05 04:37:41;;;;;;;65.93;34.50;;;;;;;;;;4440389;32;20025;-71
2022/12/05 04:40:11;;;;;;;64.68;34.45;;;;;;;;;;4436694;32;20042;-70
2022/12/05 04:42:37;;;;;;;73.28;36.10;;;;;;;;;;4434244;32;20097;-70
2022/12/05 04:45:03;;;;;;;;;;;;;;;;;;4435201;32;20034;-70
2022/12/05 04:47:30;;;;;;;70.45;34.88;;;;;;;;;;4435169;32;19966;-70
2022/12/05 04:49:55;;;;;;;66.72;33.35;;;;;;;;;;4435773;32;20051;-70
2022/12/05 04:52:20;;;;;;;;;;;;;;;;;;4437602;32;20380;-70
2022/12/05 04:54:48;;;;;;;67.97;32.42;;;;;;;;;;4437032;32;19946;-71
2022/12/05 04:57:18;;;;;;;60.50;32.45;;;;;;;;;;4437039;32;20037;-70
2022/12/05 04:59:43;;;;;;;64.75;32.67;;;;;;;;;;4436233;32;20033;-71
2022/12/05 05:02:09;;;;;;;;;;;;;;;;;;4436754;32;20056;-71
2022/12/05 05:04:35;;;;;;;61.55;30.62;;;;;;;;;;4437939;32;19974;-71
2022/12/05 05:07:05;;;;;;;64.87;32.22;;;;;;;;;;4435008;32;20211;-70
2022/12/05 05:09:30;;;;;;;58.30;30.40;;;;;;;;;;4422407;32;20436;-70
2022/12/05 05:11:56;;;;;;;;;;;;;;;;;;4435451;32;20026;-70
2022/12/05 05:14:21;;;;;;;63.10;30.77;;;;;;;;;;4421840;32;19976;-70
2022/12/05 05:16:47;;;;;;;;;;;;;;;;;;4434848;32;20029;-70
2022/12/05 05:19:12;;;;;;;63.03;29.92;;;;;;;;;;4434735;32;19949;-70
2022/12/05 05:21:37;;;;;;;;;;;;;;;;;;4434752;32;20108;-70
2022/12/05 05:24:03;;;;;;;62.78;31.10;;;;;;;;;;4435436;32;19932;-70
2022/12/05 05:26:28;;;;;;;;;;;;;;;;;;4435266;32;20416;-70
2022/12/05 05:28:54;;;;;;;59.65;30.52;;;;;;;;;;4434983;32;19947;-68
2022/12/05 05:31:19;;;;;;;;;;;;;;;;;;4436301;32;20205;-69
2022/12/05 05:33:47;;;;;;;58.92;31.15;;;;;;;;;;4435988;32;19933;-70
2022/12/05 05:36:13;;;;;;;60.67;33.00;;;;;;;;;;4434322;32;20067;-69
2022/12/05 05:38:38;;;;;;;;;;;;;;;;;;4434939;32;20038;-70
2022/12/05 05:41:03;;;;;;;59.67;32.38;;;;;;;;;;4435948;32;19952;-69
2022/12/05 05:43:28;;;;;;;;;;;;;;;;;;4436833;32;20184;-69
2022/12/05 05:45:54;;;;;;;59.60;30.42;;;;;;;;;;4435186;32;19965;-70
2022/12/05 05:48:19;;;;;;;;;;;;;;;;;;4435538;32;20338;-70
2022/12/05 05:50:44;;;;;;;62.42;32.47;;;;;;;;;;4421056;32;19933;-70
2022/12/05 05:53:09;;;;;;;;;;;;;;;;;;4435789;32;20187;-69
2022/12/05 05:55:37;;;;;;;68.95;34.35;;;;;;;;;;4435675;32;19981;-69
2022/12/05 05:58:02;;;;;;;70.72;32.58;;;;;;;;;;4437075;32;20544;-70
2022/12/05 06:00:27;;;;;;;;;;;;;;;;;;4437017;32;20045;-71
2022/12/05 06:02:53;;;;;;;50.92;29.17;;;;;;;;;;4436979;32;20263;-71
2022/12/05 06:05:18;;;;;;;;;;;;;;;;;;4436460;32;20068;-71
2022/12/05 06:07:43;;;;;;;57.55;29.30;;;;;;;;;;4434982;32;20014;-70
2022/12/05 06:10:08;;;;;;;;;;;;;;;;;;4436550;32;20026;-71
2022/12/05 06:12:33;;;;;;;64.65;31.45;;;;;;;;;;4435076;32;19936;-70
2022/12/05 06:14:58;;;;;;;;;;;;;;;;;;4436531;32;20430;-70
2022/12/05 06:17:23;;;;;;;60.90;31.17;;;;;;;;;;4436079;32;20204;-71
2022/12/05 06:19:48;;;;;;;;;;;;;;;;;;4435889;32;20050;-72
2022/12/05 06:22:14;;;;;;;64.28;33.13;;;;;;;;;;4435174;32;19941;-71
2022/12/05 06:24:39;;;;;;;;;;;;;;;;;;4434401;32;20071;-69
2022/12/05 06:27:04;;;;;;;62.53;31.85;;;;;;;;;;4436317;32;19941;-71
2022/12/05 06:29:29;;;;;;;;;;;;;;;;;;4434793;32;20071;-71
2022/12/05 06:31:55;;;;;;;58.47;31.42;;;;;;;;;;4436176;32;19941;-72
2022/12/05 06:34:20;;;;;;;;;;;;;;;;;;4420650;32;20516;-70
2022/12/05 06:36:45;;;;;;;58.97;30.62;;;;;;;;;;4434858;32;19983;-71
2022/12/05 06:39:10;;;;;;;;;;;;;;;;;;4435531;32;20642;-71
2022/12/05 06:41:35;;;;;;;62.60;31.42;;;;;;;;;;4429446;32;20374;-70
2022/12/05 06:44:00;;;;;;;;;;;;;;;;;;4435264;32;20089;-70
2022/12/05 06:46:26;;;;;;;59.88;30.56;;;;;;;;;;4435769;32;19936;-70
2022/12/05 06:48:51;;;;;;;;;;;;;;;;;;4436285;32;20064;-70
2022/12/05 06:51:16;;;;;;;70.68;32.85;;;;;;;;;;4436032;32;20294;-70
2022/12/05 06:53:41;;;;;;;;;;;;;;;;;;4435072;32;20056;-70
2022/12/05 06:56:10;;;;;;;59.60;32.00;;;;;;;;;;4434854;32;19933;-70
2022/12/05 06:58:35;;;;;;;59.00;31.27;;;;;;;;;;4420639;32;20140;-70
2022/12/05 07:03:46;;;;;;;60.10;30.75;;;;;;;;;;4421952;32;19961;-72
2022/12/05 07:06:11;;;;;;;59.53;31.27;;;;;;;;;;4418078;32;20406;-70
2022/12/05 07:08:36;;;;;;;;;;;;;;;;;;4420849;32;20139;-69
2022/12/05 07:11:02;;;;;;;56.85;30.52;;;;;;;;;;4420362;32;19968;-70
2022/12/05 07:13:27;;;;;;;;;;;;;;;;;;4428600;32;20143;-70
2022/12/05 07:15:52;;;;;;;57.20;29.17;;;;;;;;;;4436887;32;19943;-70
2022/12/05 07:18:17;;;;;;;;;;;;;;;;;;4435172;32;20057;-73
2022/12/05 07:20:43;;;;;;;58.85;28.95;;;;;;;;;;4435451;32;19969;-70
2022/12/05 07:23:08;;;;;;;;;;;;;;;;;;4421554;32;20030;-71
2022/12/05 07:25:33;;;;;;;59.55;31.10;;;;;;;;;;4437699;32;19947;-71
2022/12/05 07:27:58;;;;;;;;;;;;;;;;;;4437497;32;20070;-70
2022/12/05 07:30:23;;;;;;;62.90;29.27;;;;;;;;;;4435863;32;19969;-70
2022/12/05 07:32:49;;;;;;;;;;;;;;;;;;4421485;32;20366;-70
2022/12/05 07:35:14;;;;;;;60.10;30.05;;;;;;;;;;4436199;32;20249;-71
2022/12/05 07:37:39;;;;;;;;;;;;;;;;;;4440216;32;20147;-71
2022/12/05 07:40:04;;;;;;;51.97;29.45;;;;;;;;;;4438340;32;19944;-71
2022/12/05 07:42:29;;;;;;;;;;;;;;;;;;4429457;32;20188;-72
2022/12/05 07:44:55;;;;;;;47.00;26.45;;;;;;;;;;4424594;32;19973;-72
2022/12/05 07:47:20;;;;;;;;;;;;;;;;;;4439291;32;20517;-72
2022/12/05 07:49:45;;;;;;;48.60;27.37;;;;;;;;;;4437626;32;19948;-71
2022/12/05 07:52:10;;;;;;;;;;;;;;;;;;4437601;32;20087;-72
2022/12/05 07:54:36;;;;;;;50.12;27.48;;;;;;;;;;4438439;32;19996;-72
2022/12/05 07:57:01;;;;;;;;;;;;;;;;;;4438926;32;20025;-71
2022/12/05 07:59:26;;;;;;;43.10;26.45;;;;;;;;;;4428199;32;19945;-72
2022/12/05 08:01:51;;;;;;;;;;;;;;;;;;4438441;32;20022;-72
2022/12/05 08:04:16;;;;;;;41.53;25.27;;;;;;;;;;4437399;32;19988;-75
2022/12/05 08:06:41;;;;;;;;;;;;;;;;;;4434035;32;20198;-74
2022/12/05 08:09:07;;;;;;;37.78;22.75;;;;;;;;;;4422570;32;19933;-74
2022/12/05 08:11:34;;;;;;;;;;;;;;;;;;4422632;32;20467;-74
2022/12/05 08:13:59;;;;;;;36.67;22.42;;;;;;;;;;4407900;32;19947;-74
2022/12/05 08:16:25;;;;;;;;;;;;;;;;;;4421678;32;20030;-74
2022/12/05 08:18:54;;;;;;;39.08;23.55;;;;;;;;;;4422818;32;20067;-74
2022/12/05 08:21:19;;;;;;;35.83;23.58;;;;;;;;;;4436770;32;20034;-74
2022/12/05 08:23:44;;;;;;;;;;;;;;;;;;4437196;32;20060;-74
2022/12/05 08:26:11;;;;;;;32.55;21.40;;;;;;;;;;4437003;32;20371;-73
2022/12/05 08:28:37;;;;;;;35.38;22.95;;;;;;;;;;4423615;32;20083;-74
2022/12/05 08:31:02;;;;;;;;;;;;;;;;;;4438033;32;20395;-74
2022/12/05 08:33:27;;;;;;;34.55;19.75;;;;;;;;;;4436484;32;19933;-76
2022/12/05 08:35:52;;;;;;;;;;;;;;;;;;4437899;32;20541;-74
2022/12/05 08:38:17;;;;;;;34.95;22.40;;;;;;;;;;4436469;32;19955;-74
2022/12/05 08:40:42;;;;;;;;;;;;;;;;;;4436564;32;20029;-74
2022/12/05 08:43:07;;;;;;;32.14;21.32;;;;;;;;;;4437050;32;19992;-73
2022/12/05 08:45:33;;;;;;;;;;;;;;;;;;4438499;32;20070;-74
2022/12/05 08:47:58;;;;;;;40.72;28.55;;;;;;;;;;4436295;32;19933;-74
2022/12/05 08:50:23;;;;;;;;;;;;;;;;;;4437978;32;20462;-74
2022/12/05 08:52:48;;;;;;;31.98;21.37;;;;;;;;;;4441115;32;20330;-73
2022/12/05 08:55:13;;;;;;;;;;;;;;;;;;4441510;32;20033;-73
2022/12/05 08:57:38;;;;;;;26.83;19.00;;;;;;;;;;4436521;32;19974;-75
2022/12/05 09:00:05;;;;;;;;;;;;;;;;;;4436986;32;20025;-73
2022/12/05 09:02:30;;;;;;;31.70;20.02;;;;;;;;;;4435252;32;19948;-74
2022/12/05 09:04:55;;;;;;;;;;;;;;;;;;4421918;32;20139;-74
2022/12/05 09:07:20;;;;;;;36.03;19.55;;;;;;;;;;4435464;32;20004;-74
2022/12/05 09:09:45;;;;;;;;;;;;;;;;;;4436145;32;20084;-74
2022/12/05 09:12:10;;;;;;;27.35;19.42;;;;;;;;;;4435811;32;19949;-75
2022/12/05 09:14:36;;;;;;;;;;;;;;;;;;4436184;32;20411;-74
2022/12/05 09:17:01;;;;;;;28.10;19.70;;;;;;;;;;4437904;32;20328;-74
2022/12/05 09:19:27;;;;;;;;;;;;;;;;;;4435739;32;20045;-72
2022/12/05 09:21:53;;;;;;;26.85;18.75;;;;;;;;;;4435757;32;19937;-74
2022/12/05 09:24:18;;;;;;;;;;;;;;;;;;4436426;32;20052;-73
2022/12/05 09:26:43;;;;;;;28.05;19.30;;;;;;;;;;4421671;32;19937;-74
2022/12/05 09:29:08;;;;;;;;;;;;;;;;;;4435764;32;20064;-73
2022/12/05 09:31:35;;;;;;;23.62;17.48;;;;;;;;;;4436362;32;19936;-73
2022/12/05 09:34:01;;;;;;;26.40;17.08;;;;;;;;;;4435236;32;20122;-73
2022/12/05 09:36:26;;;;;;;;;;;;;;;;;;4436065;32;20109;-73
2022/12/05 09:38:51;;;;;;;18.98;15.62;;;;;;;;;;4422268;32;19948;-73
2022/12/05 09:41:16;;;;;;;;;;;;;;;;;;4423466;32;20049;-73
2022/12/05 09:43:47;;;;;;;23.40;17.12;;;;;;;;;;4423245;32;19968;-74
2022/12/05 09:46:15;;;;;;;23.62;18.02;;;;;;;;;;4437542;32;20129;-74
2022/12/05 09:48:40;;;;;;;23.70;17.17;;;;;;;;;;4437331;32;20371;-74
2022/12/05 09:51:05;;;;;;;;;;;;;;;;;;4437698;32;20070;-73
2022/12/05 09:53:36;;;;;;;20.42;15.63;;;;;;;;;;4437043;32;20024;-74
2022/12/05 09:56:01;;;;;;;21.52;16.05;;;;;;;;;;4438729;32;20102;-74
2022/12/05 09:58:26;;;;;;;;;;;;;;;;;;4438659;32;20022;-75
2022/12/05 10:00:58;;;;;;;18.60;13.95;;;;;;;;;;4437373;32;19937;-74
2022/12/05 10:03:30;;;;;;;19.92;13.45;;;;;;;;;;4423423;32;20137;-75
2022/12/05 10:06:09;;;;;;;19.05;14.07;;;;;;;;;;4437913;32;20123;-74
2022/12/05 10:08:34;;;;;;;20.30;14.35;;;;;;;;;;4437449;32;20038;-74
2022/12/05 10:11:06;;;;;;;16.78;12.98;;;;;;;;;;4438820;32;20081;-74
2022/12/05 10:13:31;;;;;;;18.58;13.77;;;;;;;;;;4427377;32;20056;-73
2022/12/05 10:15:56;;;;;;;;;;;;;;;;;;4446780;32;20025;-74
2022/12/05 10:18:40;;;;;;;17.67;12.05;;;;;;;;;;4440834;32;20095;-73
2022/12/05 10:21:05;;;;;;;15.82;12.55;;;;;;;;;;4420926;32;20129;-73
2022/12/05 10:23:30;;;;;;;;;;;;;;;;;;4436409;32;20053;-73
2022/12/05 10:25:57;;;;;;;15.80;11.63;;;;;;;;;;4435398;32;19933;-74
2022/12/05 10:28:31;;;;;;;15.43;11.95;;;;;;;;;;4435539;32;20163;-74
2022/12/05 10:31:00;;;;;;;13.23;11.23;;;;;;;;;;4435082;32;20037;-73
2022/12/05 10:33:34;;;;;;;15.63;11.70;;;;;;;;;;4420973;32;20030;-74
2022/12/05 10:36:01;;;;;;;16.00;12.90;;;;;;;;;;4421431;32;20126;-74
2022/12/05 10:38:28;;;;;;;14.82;11.80;;;;;;;;;;4435071;32;20029;-74
2022/12/05 10:40:54;;;;;;;16.98;12.82;;;;;;;;;;4433637;32;20060;-74
2022/12/05 10:43:26;;;;;;;15.98;12.20;;;;;;;;;;4432632;32;20046;-74
2022/12/05 10:45:52;;;;;;;16.33;12.63;;;;;;;;;;4433230;32;20124;-74
2022/12/05 10:48:17;;;;;;;;;;;;;;;;;;4419659;32;20052;-74
2022/12/05 10:50:43;;;;;;;15.75;12.55;;;;;;;;;;4418296;32;19949;-73
2022/12/05 10:53:14;;;;;;;17.83;12.75;;;;;;;;;;4432573;32;20060;-73
2022/12/05 10:55:40;;;;;;;15.05;11.48;;;;;;;;;;4434608;32;20097;-74
2022/12/05 10:58:16;;;;;;;17.45;12.98;;;;;;;;;;4420417;32;20419;-73
2022/12/05 11:00:45;;;;;;;16.67;12.82;;;;;;;;;;4435397;32;20087;-73
2022/12/05 11:03:22;;;;;;;18.20;13.15;;;;;;;;;;4420588;32;20068;-73
2022/12/05 11:05:48;;;;;;;18.92;14.23;;;;;;;;;;4434517;32;20395;-73
2022/12/05 11:08:14;;;;;;;;;;;;;;;;;;4434195;32;20025;-75
2022/12/05 11:10:42;;;;;;;17.00;11.55;;;;;;;;;;4435822;32;19954;-73
2022/12/05 11:13:15;;;;;;;22.30;17.40;;;;;;;;;;4435183;32;20212;-73
2022/12/05 11:15:46;;;;;;;16.62;12.18;;;;;;;;;;4419926;32;20417;-74
2022/12/05 11:18:40;;;;;;;18.05;13.32;;;;;;;;;;4433762;32;20674;-74
2022/12/05 11:21:12;;;;;;;17.45;12.13;;;;;;;;;;4431454;32;20384;-74
2022/12/05 11:23:38;;;;;;;14.75;11.50;;;;;;;;;;4419046;32;20026;-73
2022/12/05 11:26:03;;;;;;;;;;;;;;;;;;4418525;32;20183;-72
2022/12/05 11:28:30;;;;;;;17.25;11.38;;;;;;;;;;4420414;32;19949;-74
2022/12/05 11:30:58;;;;;;;14.27;10.30;;;;;;;;;;4424682;32;20046;-75
2022/12/05 11:33:24;;;;;;;15.43;11.57;;;;;;;;;;4425253;32;20033;-75
2022/12/05 11:35:51;;;;;;;13.45;11.52;;;;;;;;;;4417134;32;20423;-74
2022/12/05 11:38:18;;;;;;;16.27;11.48;;;;;;;;;;4428710;32;20067;-74
2022/12/05 11:40:46;;;;;;;15.48;11.55;;;;;;;;;;4426993;32;20080;-74
2022/12/05 11:43:23;;;;;;;16.87;11.15;;;;;;;;;;4426051;32;20099;-75
2022/12/05 11:45:57;;;;;;;18.25;11.90;;;;;;;;;;4425934;32;20092;-74
2022/12/05 11:48:28;;;;;;;14.38;11.15;;;;;;;;;;4416130;32;20038;-74
2022/12/05 11:51:06;;;;;;;13.80;10.45;;;;;;;;;;4416433;32;20466;-76
2022/12/05 11:53:39;;;;;;;15.93;10.95;;;;;;;;;;4423899;32;20081;-74
2022/12/05 11:56:11;;;;;;;17.62;10.90;;;;;;;;;;4425487;32;20033;-74
2022/12/05 11:58:41;;;;;;;17.08;10.52;;;;;;;;;;4424555;32;20041;-74
2022/12/05 12:01:17;;;;;;;14.30;10.55;;;;;;;;;;4424015;32;20033;-74
2022/12/05 12:03:51;;;;;;;14.87;10.30;;;;;;;;;;4425670;32;20419;-75
2022/12/05 12:06:19;;;;;;;14.55;10.98;;;;;;;;;;4424527;32;20030;-74
2022/12/05 12:08:53;;;;;;;16.37;9.52;;;;;;;;;;4424573;32;20058;-75
2022/12/05 12:11:57;;;;;;;13.57;10.27;;;;;;;;;;4425613;32;20045;-75
2022/12/05 12:14:28;;;;;;;12.00;8.65;;;;;;;;;;4363600;32;20042;-74
2022/12/05 12:17:08;;;;;;;15.52;9.23;;;;;;;;;;4362738;32;20043;-75
2022/12/05 12:19:48;;;;;;;14.60;10.32;;;;;;;;;;4397805;32;20117;-75
2022/12/05 12:22:17;;;;;;;14.75;9.93;;;;;;;;;;4424693;32;20064;-76
2022/12/05 12:24:51;;;;;;;12.23;8.95;;;;;;;;;;4431535;32;20029;-75
2022/12/05 12:27:35;;;;;;;13.27;9.27;;;;;;;;;;4430749;32;20053;-75
2022/12/05 12:30:16;;;;;;;14.50;9.77;;;;;;;;;;4430457;32;20057;-74
2022/12/05 12:32:50;;;;;;;15.18;9.70;;;;;;;;;;4429558;32;20133;-74
2022/12/05 12:35:22;;;;;;;15.18;9.52;;;;;;;;;;4426848;32;20083;-74
2022/12/05 12:38:08;;;;;;;15.15;9.52;;;;;;;;;;4426829;32;20064;-75
2022/12/05 12:40:46;;;;;;;13.25;9.50;;;;;;;;;;4413854;32;20046;-74
2022/12/05 12:43:31;;;;;;;14.98;9.30;;;;;;;;;;4428259;32;20466;-74
2022/12/05 12:46:08;;;;;;;16.02;10.15;;;;;;;;;;4426262;32;20045;-74
2022/12/05 12:48:36;;;;;;;14.40;10.02;;;;;;;;;;4417470;32;20492;-74
2022/12/05 12:51:02;;;;;;;15.43;10.68;;;;;;;;;;4429043;32;20170;-74
2022/12/05 12:53:27;;;;;;;;;;;;;;;;;;4427936;32;20065;-74
2022/12/05 12:56:12;;;;;;;17.42;10.27;;;;;;;;;;4420114;32;19983;-76
2022/12/05 12:58:52;;;;;;;16.75;10.20;;;;;;;;;;4427804;32;20138;-74
2022/12/05 13:01:35;;;;;;;21.98;11.90;;;;;;;;;;4428189;32;20034;-75
2022/12/05 13:04:11;;;;;;;16.67;10.80;;;;;;;;;;4424024;32;20157;-76
2022/12/05 13:06:39;;;;;;;17.50;11.05;;;;;;;;;;4429223;32;20029;-75
2022/12/05 13:09:13;;;;;;;20.83;11.82;;;;;;;;;;4427183;32;20074;-75
2022/12/05 13:11:40;;;;;;;21.60;11.20;;;;;;;;;;4427363;32;20459;-75
2022/12/05 13:14:13;;;;;;;16.23;10.73;;;;;;;;;;4427682;32;20049;-74
2022/12/05 13:16:40;;;;;;;19.17;11.10;;;;;;;;;;4424645;32;20360;-75
2022/12/05 13:19:13;;;;;;;17.73;9.63;;;;;;;;;;4428496;32;20042;-75
2022/12/05 13:21:38;;;;;;;17.70;10.88;;;;;;;;;;4427902;32;20033;-74
2022/12/05 13:24:03;;;;;;;;;;;;;;;;;;4429709;32;20026;-74
2022/12/05 13:26:29;;;;;;;16.52;11.10;;;;;;;;;;4413835;32;20204;-74
2022/12/05 13:28:56;;;;;;;25.88;10.98;;;;;;;;;;4430007;32;20071;-75
2022/12/05 13:31:38;;;;;;;17.98;11.68;;;;;;;;;;4414065;32;20135;-74
2022/12/05 13:34:03;;;;;;;20.37;10.77;;;;;;;;;;4427394;32;20369;-74
2022/12/05 13:42:14;;;;;;;21.37;10.20;;;;;;;;;;4429660;32;20052;-74
2022/12/05 13:44:49;;;;;;;17.80;10.60;;;;;;;;;;4423904;32;20034;-73
2022/12/05 13:47:21;;;;;;;19.23;10.30;;;;;;;;;;4418068;32;20090;-75
2022/12/05 13:49:51;;;;;;;17.48;10.48;;;;;;;;;;4425776;32;20071;-73
2022/12/05 13:52:23;;;;;;;20.02;10.88;;;;;;;;;;4424623;32;20183;-74
2022/12/05 13:54:52;;;;;;;20.20;10.60;;;;;;;;;;4424224;32;20130;-74
2022/12/05 13:57:43;;;;;;;19.92;10.40;;;;;;;;;;4430575;32;20037;-73
2022/12/05 14:00:09;;;;;;;24.75;11.10;;;;;;;;;;4420124;32;20038;-75
2022/12/05 14:02:34;;;;;;;;;;;;;;;;;;4436134;32;20402;-75
2022/12/05 14:04:59;;;;;;;21.25;11.90;;;;;;;;;;4420290;32;20321;-75
2022/12/05 14:07:24;;;;;;;;;;;;;;;;;;4420236;32;20121;-75
2022/12/05 14:09:51;;;;;;;18.80;10.88;;;;;;;;;;4420564;32;19992;-74
2022/12/05 14:12:18;;;;;;;24.42;11.77;;;;;;;;;;4430661;32;20125;-75
2022/12/05 14:14:57;;;;;;;21.73;11.25;;;;;;;;;;4419263;32;20033;-74
2022/12/05 14:17:39;;;;;;;17.10;11.43;;;;;;;;;;4426898;32;20053;-74
2022/12/05 14:20:05;;;;;;;19.58;10.73;;;;;;;;;;4432505;32;20517;-75
2022/12/05 14:22:30;;;;;;;;;;;;;;;;;;4423037;32;20029;-75
2022/12/05 14:25:10;;;;;;;17.92;10.40;;;;;;;;;;4432469;32;19948;-75
2022/12/05 14:27:45;;;;;;;24.77;11.10;;;;;;;;;;4434050;32;20026;-73
2022/12/05 14:30:19;;;;;;;15.90;10.97;;;;;;;;;;4424998;32;20030;-75
2022/12/05 14:32:44;;;;;;;16.25;11.07;;;;;;;;;;4415471;32;20082;-73
2022/12/05 14:35:09;;;;;;;;;;;;;;;;;;4420906;32;20027;-74
2022/12/05 14:37:55;;;;;;;21.42;11.30;;;;;;;;;;4429455;32;19960;-73
2022/12/05 14:40:23;;;;;;;17.10;10.80;;;;;;;;;;4425848;32;20183;-74
2022/12/05 14:42:54;;;;;;;20.05;11.48;;;;;;;;;;4425814;32;20052;-75
2022/12/05 14:45:22;;;;;;;19.60;10.82;;;;;;;;;;4424504;32;20419;-75
2022/12/05 14:47:53;;;;;;;17.35;10.60;;;;;;;;;;4409611;32;20066;-74
2022/12/05 14:50:31;;;;;;;19.08;12.43;;;;;;;;;;4432423;32;20029;-75
2022/12/05 14:53:14;;;;;;;18.30;10.57;;;;;;;;;;4426134;32;20037;-73
2022/12/05 14:55:41;;;;;;;20.62;10.90;;;;;;;;;;4426993;32;20150;-75
2022/12/05 14:58:14;;;;;;;16.15;9.85;;;;;;;;;;4427112;32;20030;-75
2022/12/05 15:00:40;;;;;;;21.52;11.52;;;;;;;;;;4429201;32;20071;-74
2022/12/05 15:03:05;;;;;;;;;;;;;;;;;;4425642;32;20389;-74
2022/12/05 15:05:31;;;;;;;21.10;9.77;;;;;;;;;;4428338;32;19945;-74
2022/12/05 15:07:58;;;;;;;14.27;9.90;;;;;;;;;;4424586;32;20382;-73
2022/12/05 15:10:23;;;;;;;14.57;9.35;;;;;;;;;;4412723;32;20078;-74
2022/12/05 15:12:48;;;;;;;;;;;;;;;;;;4427768;32;20073;-74